createdAt,value
2018-08-16T00:01:16.725Z,19.76
2018-08-16T00:03:44.455Z,19.70
2018-08-16T00:06:12.136Z,19.71
2018-08-16T00:08:39.748Z,19.71
2018-08-16T00:11:07.387Z,19.74
2018-08-16T00:13:35.060Z,19.77
2018-08-16T00:16:02.768Z,19.80
2018-08-16T00:18:30.547Z,19.64
2018-08-16T00:20:58.176Z,19.56
2018-08-16T00:23:25.810Z,19.52
2018-08-16T00:25:53.459Z,19.51
2018-08-16T00:28:21.136Z,19.62
2018-08-16T00:30:48.741Z,19.63
2018-08-16T00:33:16.429Z,19.67
2018-08-16T00:35:44.137Z,19.62
2018-08-16T00:38:11.861Z,19.61
2018-08-16T00:40:39.511Z,19.59
2018-08-16T00:43:07.271Z,19.56
2018-08-16T00:45:34.967Z,19.55
2018-08-16T00:48:02.573Z,19.53
2018-08-16T00:50:30.288Z,19.52
2018-08-16T00:52:57.917Z,19.52
2018-08-16T00:55:25.549Z,19.50
2018-08-16T00:57:53.280Z,19.46
2018-08-16T01:00:20.923Z,19.43
2018-08-16T01:02:48.521Z,19.44
2018-08-16T01:05:16.169Z,19.37
2018-08-16T01:07:43.819Z,19.34
2018-08-16T01:10:12.787Z,19.32
2018-08-16T01:12:41.092Z,19.30
2018-08-16T01:15:10.349Z,19.34
2018-08-16T01:17:37.990Z,19.37
2018-08-16T01:20:05.959Z,19.28
2018-08-16T01:22:33.614Z,19.27
2018-08-16T01:25:01.252Z,19.28
2018-08-16T01:27:28.910Z,19.27
2018-08-16T01:29:56.528Z,19.25
2018-08-16T01:32:24.200Z,19.21
2018-08-16T01:34:51.813Z,19.21
2018-08-16T01:37:19.460Z,19.15
2018-08-16T01:39:47.070Z,19.18
2018-08-16T01:42:14.782Z,19.12
2018-08-16T01:44:42.385Z,19.12
2018-08-16T01:47:09.965Z,19.13
2018-08-16T01:49:38.196Z,19.09
2018-08-16T01:52:06.199Z,19.06
2018-08-16T01:54:33.963Z,19.05
2018-08-16T01:57:02.112Z,19.03
2018-08-16T01:59:29.759Z,19.01
2018-08-16T02:01:57.412Z,19.01
2018-08-16T02:04:25.086Z,19.03
2018-08-16T02:06:53.123Z,18.97
2018-08-16T02:09:21.634Z,18.91
2018-08-16T02:11:49.407Z,18.87
2018-08-16T02:14:17.423Z,18.87
2018-08-16T02:16:45.103Z,18.85
2018-08-16T02:19:12.805Z,18.85
2018-08-16T02:21:40.493Z,18.87
2018-08-16T02:24:08.238Z,18.82
2018-08-16T02:26:35.972Z,18.79
2018-08-16T02:29:03.716Z,18.79
2018-08-16T02:31:31.651Z,18.78
2018-08-16T02:33:59.326Z,18.75
2018-08-16T02:36:27.027Z,18.67
2018-08-16T02:38:55.109Z,18.64
2018-08-16T02:41:22.804Z,18.61
2018-08-16T02:43:50.452Z,18.62
2018-08-16T02:46:18.104Z,18.62
2018-08-16T02:48:45.763Z,18.62
2018-08-16T02:51:13.652Z,18.61
2018-08-16T02:53:41.349Z,18.58
2018-08-16T02:56:09.011Z,18.56
2018-08-16T02:58:36.626Z,18.51
2018-08-16T03:01:04.323Z,18.47
2018-08-16T03:03:32.271Z,18.48
2018-08-16T03:05:59.954Z,18.44
2018-08-16T03:08:27.613Z,18.35
2018-08-16T03:10:55.268Z,18.35
2018-08-16T03:13:23.044Z,18.34
2018-08-16T03:15:50.636Z,18.34
2018-08-16T03:18:18.348Z,18.32
2018-08-16T03:20:45.964Z,18.33
2018-08-16T03:23:13.609Z,18.34
2018-08-16T03:25:41.335Z,18.37
2018-08-16T03:28:08.967Z,18.36
2018-08-16T03:30:36.614Z,18.35
2018-08-16T03:33:04.271Z,18.32
2018-08-16T03:35:31.962Z,18.31
2018-08-16T03:37:59.588Z,18.31
2018-08-16T03:40:27.260Z,18.27
2018-08-16T03:42:54.862Z,18.21
2018-08-16T03:45:22.611Z,18.21
2018-08-16T03:47:50.217Z,18.20
2018-08-16T03:50:17.886Z,18.18
2018-08-16T03:52:45.650Z,18.27
2018-08-16T03:55:13.283Z,18.28
2018-08-16T03:57:41.099Z,18.23
2018-08-16T04:00:08.766Z,18.21
2018-08-16T04:02:36.429Z,18.21
2018-08-16T04:05:04.504Z,18.15
2018-08-16T04:07:32.154Z,18.12
2018-08-16T04:09:59.787Z,18.09
2018-08-16T04:12:33.574Z,18.11
2018-08-16T04:15:01.234Z,18.12
2018-08-16T04:17:36.061Z,18.11
2018-08-16T04:20:04.407Z,18.09
2018-08-16T04:22:32.226Z,18.15
2018-08-16T04:24:59.852Z,18.13
2018-08-16T04:27:27.866Z,18.12
2018-08-16T04:29:55.695Z,18.12
2018-08-16T04:32:23.313Z,18.11
2018-08-16T04:34:50.949Z,18.09
2018-08-16T04:37:18.598Z,18.11
2018-08-16T04:39:46.258Z,18.16
2018-08-16T04:42:14.047Z,18.19
2018-08-16T04:44:41.975Z,18.24
2018-08-16T04:47:09.630Z,18.29
2018-08-16T04:49:37.319Z,18.36
2018-08-16T04:52:05.290Z,18.40
2018-08-16T04:54:33.031Z,18.43
2018-08-16T04:57:00.853Z,18.49
2018-08-16T04:59:28.431Z,18.55
2018-08-16T05:01:56.038Z,18.59
2018-08-16T05:04:23.747Z,18.67
2018-08-16T05:06:52.503Z,18.77
2018-08-16T05:09:20.232Z,18.80
2018-08-16T05:11:47.856Z,18.84
2018-08-16T05:14:15.481Z,18.89
2018-08-16T05:16:43.148Z,18.94
2018-08-16T05:19:10.835Z,19.02
2018-08-16T05:21:38.476Z,19.09
2018-08-16T05:24:06.164Z,19.19
2018-08-16T05:26:33.832Z,19.27
2018-08-16T05:29:01.445Z,19.35
2018-08-16T05:31:29.205Z,19.42
2018-08-16T05:33:56.900Z,19.54
2018-08-16T05:36:24.612Z,19.66
2018-08-16T05:38:52.220Z,19.75
2018-08-16T05:41:20.013Z,19.84
2018-08-16T05:43:47.864Z,19.93
2018-08-16T05:46:15.570Z,20.07
2018-08-16T05:48:43.244Z,20.12
2018-08-16T05:51:10.867Z,20.21
2018-08-16T05:53:38.584Z,20.36
2018-08-16T05:56:06.395Z,20.42
2018-08-16T05:58:34.136Z,20.55
2018-08-16T06:01:01.816Z,20.72
2018-08-16T06:03:29.473Z,20.79
2018-08-16T06:05:57.085Z,20.94
2018-08-16T06:08:24.730Z,21.09
2018-08-16T06:10:52.403Z,21.25
2018-08-16T06:13:20.165Z,21.40
2018-08-16T06:15:47.780Z,21.51
2018-08-16T06:18:15.560Z,21.70
2018-08-16T06:20:43.254Z,21.89
2018-08-16T06:23:10.900Z,21.98
2018-08-16T06:25:38.603Z,22.10
2018-08-16T06:28:06.572Z,22.29
2018-08-16T06:30:34.247Z,22.49
2018-08-16T06:33:01.912Z,22.69
2018-08-16T06:35:29.558Z,22.88
2018-08-16T06:37:57.323Z,23.05
2018-08-16T06:40:24.982Z,23.18
2018-08-16T06:42:52.614Z,23.30
2018-08-16T06:45:20.359Z,23.47
2018-08-16T06:47:48.046Z,23.62
2018-08-16T06:50:15.712Z,23.76
2018-08-16T06:52:43.619Z,23.90
2018-08-16T06:55:11.320Z,24.14
2018-08-16T06:57:39.031Z,24.38
2018-08-16T07:00:07.413Z,24.55
2018-08-16T07:02:35.395Z,24.63
2018-08-16T07:05:03.192Z,24.73
2018-08-16T07:07:30.855Z,24.86
2018-08-16T07:09:58.580Z,25.10
2018-08-16T07:12:26.436Z,25.33
2018-08-16T07:14:54.011Z,25.47
2018-08-16T07:17:21.666Z,25.65
2018-08-16T07:19:49.299Z,25.83
2018-08-16T07:22:16.977Z,26.07
2018-08-16T07:24:44.709Z,26.37
2018-08-16T07:27:12.367Z,26.43
2018-08-16T07:29:40.122Z,26.45
2018-08-16T07:32:07.911Z,26.44
2018-08-16T07:34:35.573Z,26.38
2018-08-16T07:37:03.374Z,26.31
2018-08-16T07:39:31.050Z,26.61
2018-08-16T07:41:58.680Z,26.62
2018-08-16T07:44:26.341Z,26.82
2018-08-16T07:46:53.996Z,26.93
2018-08-16T07:49:21.763Z,27.34
2018-08-16T07:51:49.454Z,27.54
2018-08-16T07:54:18.324Z,27.67
2018-08-16T07:56:45.961Z,27.79
2018-08-16T07:59:13.605Z,27.84
2018-08-16T08:01:41.354Z,28.07
2018-08-16T08:04:09.071Z,28.03
2018-08-16T08:06:36.816Z,28.19
2018-08-16T08:09:07.031Z,28.27
2018-08-16T08:11:34.584Z,28.52
2018-08-16T08:14:02.310Z,28.93
2018-08-16T08:16:30.020Z,28.95
2018-08-16T08:18:57.747Z,29.42
2018-08-16T08:21:25.420Z,29.83
2018-08-16T08:23:53.088Z,29.99
2018-08-16T08:26:20.797Z,30.51
2018-08-16T08:28:48.508Z,31.09
2018-08-16T08:31:16.169Z,31.39
2018-08-16T08:33:43.779Z,31.73
2018-08-16T08:36:22.562Z,32.38
2018-08-16T08:38:50.211Z,32.93
2018-08-16T08:41:17.904Z,33.20
2018-08-16T08:43:56.585Z,33.68
2018-08-16T08:46:24.235Z,34.04
2018-08-16T08:48:52.308Z,33.23
2018-08-16T08:51:20.033Z,32.89
2018-08-16T08:55:08.304Z,32.95
2018-08-16T08:57:47.159Z,33.41
2018-08-16T09:00:14.895Z,34.02
2018-08-16T09:02:42.568Z,34.34
2018-08-16T09:05:10.349Z,34.07
2018-08-16T09:07:38.108Z,34.46
2018-08-16T09:11:15.633Z,35.04
2018-08-16T09:14:09.430Z,34.98
2018-08-16T09:16:40.438Z,34.97
2018-08-16T09:19:08.955Z,35.08
2018-08-16T09:21:36.803Z,35.25
2018-08-16T09:24:04.562Z,35.47
2018-08-16T09:26:37.649Z,35.49
2018-08-16T09:29:14.260Z,35.51
2018-08-16T09:31:53.041Z,35.78
2018-08-16T09:34:23.039Z,36.09
2018-08-16T09:36:50.679Z,36.30
2018-08-16T09:39:18.477Z,36.30
2018-08-16T09:41:46.165Z,35.91
2018-08-16T09:44:13.834Z,35.76
2018-08-16T09:47:08.304Z,35.66
2018-08-16T09:49:38.684Z,35.63
2018-08-16T09:52:07.151Z,35.69
2018-08-16T09:54:34.934Z,35.88
2018-08-16T09:57:03.984Z,35.51
2018-08-16T09:59:31.655Z,35.85
2018-08-16T10:01:59.322Z,36.35
2018-08-16T10:04:27.620Z,36.41
2018-08-16T10:06:55.261Z,36.20
2018-08-16T10:09:24.991Z,36.04
2018-08-16T10:11:53.026Z,36.07
2018-08-16T10:14:21.102Z,36.38
2018-08-16T10:16:48.858Z,36.29
2018-08-16T10:19:16.569Z,36.13
2018-08-16T10:21:44.388Z,36.78
2018-08-16T10:24:12.319Z,37.10
2018-08-16T10:26:40.039Z,36.79
2018-08-16T10:29:08.303Z,36.85
2018-08-16T10:31:36.021Z,36.48
2018-08-16T10:34:03.767Z,36.18
2018-08-16T10:36:31.468Z,36.46
2018-08-16T10:38:59.247Z,37.13
2018-08-16T10:41:27.387Z,37.63
2018-08-16T10:43:55.016Z,37.99
2018-08-16T10:46:22.799Z,38.17
2018-08-16T10:48:50.440Z,38.04
2018-08-16T10:51:18.164Z,38.31
2018-08-16T10:53:45.927Z,38.28
2018-08-16T10:56:13.693Z,38.14
2018-08-16T10:58:41.443Z,38.13
2018-08-16T11:01:09.150Z,37.88
2018-08-16T11:03:36.842Z,38.39
2018-08-16T11:06:04.529Z,38.02
2018-08-16T11:08:32.178Z,38.11
2018-08-16T11:10:59.804Z,39.06
2018-08-16T11:13:27.479Z,39.47
2018-08-16T11:15:55.095Z,39.29
2018-08-16T11:18:22.703Z,38.98
2018-08-16T11:20:50.309Z,39.43
2018-08-16T11:23:17.955Z,40.02
2018-08-16T11:25:45.676Z,40.24
2018-08-16T11:28:13.348Z,40.60
2018-08-16T11:30:41.064Z,41.03
2018-08-16T11:33:09.199Z,41.47
2018-08-16T11:35:36.860Z,41.66
2018-08-16T11:38:04.643Z,41.99
2018-08-16T11:40:32.334Z,41.46
2018-08-16T11:42:59.983Z,41.65
2018-08-16T11:45:27.641Z,42.33
2018-08-16T11:47:55.241Z,42.84
2018-08-16T11:50:22.891Z,42.76
2018-08-16T11:52:50.523Z,42.92
2018-08-16T11:55:18.308Z,43.23
2018-08-16T11:57:46.005Z,43.39
2018-08-16T12:00:13.655Z,44.09
2018-08-16T12:02:41.327Z,44.36
2018-08-16T12:05:08.953Z,44.62
2018-08-16T12:07:36.675Z,44.33
2018-08-16T12:10:04.498Z,43.86
2018-08-16T12:12:32.173Z,43.66
2018-08-16T12:14:59.789Z,43.49
2018-08-16T12:17:27.447Z,43.56
2018-08-16T12:19:55.056Z,44.15
2018-08-16T12:22:22.772Z,44.62
2018-08-16T12:24:50.472Z,44.58
2018-08-16T12:27:18.518Z,44.46
2018-08-16T12:29:46.228Z,43.62
2018-08-16T12:32:13.981Z,44.06
2018-08-16T12:34:41.654Z,44.51
2018-08-16T12:37:09.375Z,44.73
2018-08-16T12:39:37.098Z,44.89
2018-08-16T12:42:05.051Z,44.66
2018-08-16T12:44:32.682Z,44.65
2018-08-16T12:47:00.313Z,44.75
2018-08-16T12:49:27.972Z,44.39
2018-08-16T12:51:55.685Z,44.81
2018-08-16T12:54:23.355Z,45.34
2018-08-16T12:56:50.978Z,45.51
2018-08-16T12:59:18.591Z,45.90
2018-08-16T13:01:46.379Z,45.98
2018-08-16T13:04:14.231Z,46.09
2018-08-16T13:06:41.967Z,46.00
2018-08-16T13:09:10.107Z,45.74
2018-08-16T13:11:38.265Z,45.84
2018-08-16T13:14:05.884Z,46.19
2018-08-16T13:16:33.922Z,46.09
2018-08-16T13:19:01.548Z,46.08
2018-08-16T13:21:29.250Z,46.35
2018-08-16T13:23:57.041Z,46.35
2018-08-16T13:26:24.696Z,45.54
2018-08-16T13:28:52.362Z,45.37
2018-08-16T13:31:20.078Z,45.87
2018-08-16T13:33:47.717Z,45.79
2018-08-16T13:36:15.395Z,45.66
2018-08-16T13:38:43.043Z,45.29
2018-08-16T13:41:10.679Z,45.70
2018-08-16T13:43:38.357Z,45.36
2018-08-16T13:46:05.994Z,45.18
2018-08-16T13:48:33.806Z,45.22
2018-08-16T13:51:01.417Z,45.09
2018-08-16T13:53:29.204Z,45.41
2018-08-16T13:55:56.865Z,45.48
2018-08-16T13:58:24.524Z,45.63
2018-08-16T14:00:52.171Z,45.82
2018-08-16T14:03:19.899Z,45.26
2018-08-16T14:05:47.548Z,45.36
2018-08-16T14:08:15.208Z,45.33
2018-08-16T14:10:44.278Z,44.80
2018-08-16T14:13:11.932Z,44.85
2018-08-16T14:15:39.627Z,44.94
2018-08-16T14:18:07.229Z,44.63
2018-08-16T14:20:34.855Z,44.24
2018-08-16T14:23:02.507Z,44.56
2018-08-16T14:25:30.144Z,45.03
2018-08-16T14:27:57.820Z,42.85
2018-08-16T14:30:25.452Z,41.53
2018-08-16T14:32:53.045Z,40.20
2018-08-16T14:35:20.808Z,40.86
2018-08-16T14:37:48.425Z,40.47
2018-08-16T14:40:16.159Z,40.77
2018-08-16T14:42:44.875Z,40.27
2018-08-16T14:45:12.575Z,40.09
2018-08-16T14:47:40.214Z,39.03
2018-08-16T14:50:07.913Z,38.22
2018-08-16T14:52:35.553Z,39.71
2018-08-16T14:55:03.325Z,41.14
2018-08-16T14:57:31.235Z,38.33
2018-08-16T14:59:58.844Z,37.34
2018-08-16T15:02:26.575Z,38.92
2018-08-16T15:04:54.209Z,38.65
2018-08-16T15:07:22.151Z,37.83
2018-08-16T15:09:49.755Z,36.83
2018-08-16T15:12:17.463Z,36.23
2018-08-16T15:14:45.106Z,37.91
2018-08-16T15:17:12.724Z,37.78
2018-08-16T15:19:40.379Z,36.50
2018-08-16T15:22:08.029Z,35.74
2018-08-16T15:24:35.678Z,35.16
2018-08-16T15:27:03.415Z,34.73
2018-08-16T15:29:31.112Z,34.02
2018-08-16T15:31:58.712Z,33.67
2018-08-16T15:34:27.313Z,33.43
2018-08-16T15:36:54.992Z,33.31
2018-08-16T15:39:23.099Z,33.35
2018-08-16T15:41:50.826Z,33.29
2018-08-16T15:44:18.559Z,33.24
2018-08-16T15:46:46.237Z,33.14
2018-08-16T15:49:13.914Z,32.93
2018-08-16T15:51:41.765Z,32.66
2018-08-16T15:54:09.379Z,32.59
2018-08-16T15:56:37.066Z,32.45
2018-08-16T15:59:05.512Z,32.31
2018-08-16T16:01:33.096Z,32.28
2018-08-16T16:04:00.802Z,32.23
2018-08-16T16:06:28.654Z,32.26
2018-08-16T16:08:56.333Z,32.26
2018-08-16T16:11:24.057Z,32.24
2018-08-16T16:13:51.648Z,32.18
2018-08-16T16:16:19.516Z,32.09
2018-08-16T16:18:47.357Z,32.01
2018-08-16T16:21:14.983Z,31.97
2018-08-16T16:23:42.875Z,31.96
2018-08-16T16:26:10.713Z,31.95
2018-08-16T16:28:38.383Z,31.92
2018-08-16T16:31:06.188Z,31.82
2018-08-16T16:33:33.841Z,31.69
2018-08-16T16:36:01.789Z,31.65
2018-08-16T16:38:29.546Z,31.54
2018-08-16T16:40:57.223Z,31.58
2018-08-16T16:43:24.883Z,31.61
2018-08-16T16:45:52.583Z,31.64
2018-08-16T16:48:20.402Z,31.66
2018-08-16T16:50:50.144Z,31.63
2018-08-16T16:53:17.849Z,31.54
2018-08-16T16:55:45.591Z,31.39
2018-08-16T16:58:13.245Z,31.28
2018-08-16T17:00:40.979Z,31.20
2018-08-16T17:03:08.829Z,31.23
2018-08-16T17:05:37.555Z,31.19
2018-08-16T17:08:05.343Z,31.08
2018-08-16T17:10:33.034Z,31.04
2018-08-16T17:13:00.625Z,30.74
2018-08-16T17:15:28.288Z,30.60
2018-08-16T17:17:56.039Z,30.47
2018-08-16T17:20:23.689Z,30.40
2018-08-16T17:22:51.303Z,30.46
2018-08-16T17:25:19.045Z,30.46
2018-08-16T17:27:46.709Z,30.48
2018-08-16T17:30:14.307Z,30.48
2018-08-16T17:32:42.074Z,30.48
2018-08-16T17:35:10.815Z,30.32
2018-08-16T17:37:38.487Z,30.22
2018-08-16T17:40:06.296Z,30.23
2018-08-16T17:42:34.006Z,30.17
2018-08-16T17:45:01.648Z,30.19
2018-08-16T17:47:29.358Z,30.16
2018-08-16T17:49:56.983Z,30.21
2018-08-16T17:52:24.582Z,30.19
2018-08-16T17:54:52.290Z,30.09
2018-08-16T17:57:19.978Z,30.05
2018-08-16T17:59:47.573Z,30.02
2018-08-16T18:02:15.316Z,29.98
2018-08-16T18:04:42.974Z,29.96
2018-08-16T18:07:10.603Z,29.87
2018-08-16T18:09:38.273Z,29.79
2018-08-16T18:12:06.003Z,29.72
2018-08-16T18:14:33.631Z,29.63
2018-08-16T18:17:02.361Z,29.56
2018-08-16T18:19:30.035Z,29.48
2018-08-16T18:21:58.699Z,29.42
2018-08-16T18:24:26.624Z,29.39
2018-08-16T18:26:54.160Z,29.29
2018-08-16T18:29:21.790Z,29.28
2018-08-16T18:31:49.420Z,29.21
2018-08-16T18:34:17.080Z,29.11
2018-08-16T18:36:44.745Z,28.96
2018-08-16T18:39:12.458Z,28.83
2018-08-16T18:41:40.116Z,28.78
2018-08-16T18:44:08.080Z,28.77
2018-08-16T18:46:35.744Z,28.73
2018-08-16T18:49:03.489Z,28.63
2018-08-16T18:51:31.122Z,28.55
2018-08-16T18:53:58.861Z,28.45
2018-08-16T18:56:26.457Z,28.41
2018-08-16T18:58:54.107Z,28.41
2018-08-16T19:01:21.760Z,28.38
2018-08-16T19:03:49.378Z,28.35
2018-08-16T19:06:17.056Z,28.28
2018-08-16T19:08:44.742Z,28.20
2018-08-16T19:11:12.385Z,28.19
2018-08-16T19:13:40.012Z,28.15
2018-08-16T19:16:07.671Z,28.11
2018-08-16T19:18:35.417Z,28.02
2018-08-16T19:21:03.057Z,27.95
2018-08-16T19:23:30.710Z,27.87
2018-08-16T19:25:58.419Z,27.84
2018-08-16T19:28:26.406Z,27.77
2018-08-16T19:30:54.064Z,27.70
2018-08-16T19:33:21.777Z,27.64
2018-08-16T19:35:49.426Z,27.56
2018-08-16T19:38:17.058Z,27.50
2018-08-16T19:40:44.728Z,27.49
2018-08-16T19:43:12.385Z,27.51
2018-08-16T19:45:40.017Z,27.46
2018-08-16T19:48:07.794Z,27.40
2018-08-16T19:50:35.418Z,27.37
2018-08-16T19:53:03.202Z,27.30
2018-08-16T19:55:30.828Z,27.33
2018-08-16T19:57:58.605Z,27.31
2018-08-16T20:00:26.299Z,27.30
2018-08-16T20:02:53.997Z,27.31
2018-08-16T20:05:21.639Z,27.23
2018-08-16T20:07:49.485Z,27.15
2018-08-16T20:10:17.223Z,27.12
2018-08-16T20:12:45.196Z,27.04
2018-08-16T20:15:12.874Z,27.02
2018-08-16T20:17:40.599Z,26.97
2018-08-16T20:20:08.301Z,26.96
2018-08-16T20:22:36.135Z,26.96
2018-08-16T20:25:04.045Z,26.95
2018-08-16T20:27:31.669Z,26.92
2018-08-16T20:29:59.368Z,26.86
2018-08-16T20:32:27.021Z,26.85
2018-08-16T20:34:54.728Z,26.79
2018-08-16T20:37:22.388Z,26.80
2018-08-16T20:39:50.021Z,26.77
2018-08-16T20:42:17.695Z,26.71
2018-08-16T20:44:45.327Z,26.68
2018-08-16T20:47:12.992Z,26.68
2018-08-16T20:49:40.652Z,26.58
2018-08-16T20:52:08.602Z,26.58
2018-08-16T20:54:36.254Z,26.59
2018-08-16T20:57:04.034Z,26.55
2018-08-16T20:59:31.686Z,26.48
2018-08-16T21:01:59.327Z,26.49
2018-08-16T21:04:26.961Z,26.52
2018-08-16T21:06:54.584Z,26.47
2018-08-16T21:09:22.406Z,26.49
2018-08-16T21:11:50.087Z,26.47
2018-08-16T21:14:17.804Z,26.45
2018-08-16T21:16:45.486Z,26.39
2018-08-16T21:19:13.136Z,26.30
2018-08-16T21:21:40.931Z,26.27
2018-08-16T21:24:08.524Z,26.16
2018-08-16T21:26:36.124Z,26.07
2018-08-16T21:29:03.831Z,26.03
2018-08-16T21:31:31.410Z,26.01
2018-08-16T21:33:59.100Z,26.00
2018-08-16T21:36:26.783Z,25.94
2018-08-16T21:38:54.379Z,25.91
2018-08-16T21:41:21.991Z,25.83
2018-08-16T21:43:49.644Z,25.79
2018-08-16T21:46:17.255Z,25.81
2018-08-16T21:48:44.860Z,25.82
2018-08-16T21:51:12.478Z,25.80
2018-08-16T21:53:40.107Z,25.74
2018-08-16T21:56:07.709Z,25.74
2018-08-16T21:58:35.398Z,25.68
2018-08-16T22:01:07.167Z,25.67
2018-08-16T22:03:34.854Z,25.72
2018-08-16T22:06:06.114Z,25.69
2018-08-16T22:08:42.606Z,25.69
2018-08-16T22:11:10.482Z,25.71
2018-08-16T22:13:38.423Z,25.65
2018-08-16T22:16:06.267Z,25.60
2018-08-16T22:18:33.926Z,25.59
2018-08-16T22:21:01.687Z,25.57
2018-08-16T22:23:29.394Z,25.58
2018-08-16T22:25:57.019Z,25.57
2018-08-16T22:28:24.666Z,25.47
2018-08-16T22:30:52.361Z,25.51
2018-08-16T22:33:20.034Z,25.45
2018-08-16T22:35:47.628Z,25.46
2018-08-16T22:38:15.359Z,25.47
2018-08-16T22:40:43.034Z,25.41
2018-08-16T22:43:10.743Z,25.44
2018-08-16T22:45:38.486Z,25.40
2018-08-16T22:48:06.237Z,25.39
2018-08-16T22:50:33.927Z,25.34
2018-08-16T22:53:01.669Z,25.37
2018-08-16T22:55:29.412Z,25.34
2018-08-16T22:57:57.059Z,25.33
2018-08-16T23:00:24.791Z,25.32
2018-08-16T23:02:52.463Z,25.35
2018-08-16T23:05:20.108Z,25.28
2018-08-16T23:07:47.724Z,25.27
2018-08-16T23:10:15.464Z,25.25
2018-08-16T23:12:43.067Z,25.23
2018-08-16T23:15:10.707Z,25.28
2018-08-16T23:17:38.332Z,25.24
2018-08-16T23:20:06.673Z,25.19
2018-08-16T23:22:34.373Z,25.24
2018-08-16T23:25:01.997Z,25.22
2018-08-16T23:27:29.639Z,25.21
2018-08-16T23:29:57.396Z,25.13
2018-08-16T23:32:25.014Z,25.17
2018-08-16T23:34:52.749Z,25.15
2018-08-16T23:37:20.459Z,25.08
2018-08-16T23:39:48.311Z,25.01
2018-08-16T23:42:16.690Z,24.95
2018-08-16T23:44:44.458Z,25.03
2018-08-16T23:47:12.110Z,25.06
2018-08-16T23:49:39.730Z,25.05
2018-08-16T23:52:07.384Z,24.97
2018-08-16T23:54:35.140Z,24.99
2018-08-16T23:57:02.826Z,24.94
2018-08-16T23:59:30.512Z,24.84
